sensor_id;sensor_type;location;lat;lon;timestamp;pressure;altitude;pressure_sealevel;temperature;humidity
36600;BME280;35385;55.668;37.508;2023-08-01T00:00:41;98740.97;;;18.56;100.00
36600;BME280;35385;55.668;37.508;2023-08-01T00:01:41;98742.84;;;18.55;100.00
36600;BME280;35385;55.668;37.508;2023-08-01T00:02:42;98743.66;;;18.56;100.00
36600;BME280;35385;55.668;37.508;2023-08-01T00:03:42;98746.38;;;18.56;100.00
36600;BME280;35385;55.668;37.508;2023-08-01T00:04:43;98741.78;;;18.56;100.00
36600;BME280;35385;55.668;37.508;2023-08-01T00:05:43;98744.50;;;18.56;100.00
36600;BME280;35385;55.668;37.508;2023-08-01T00:06:46;98741.78;;;18.56;100.00
36600;BME280;35385;55.668;37.508;2023-08-01T00:07:47;98741.78;;;18.56;100.00
36600;BME280;35385;55.668;37.508;2023-08-01T00:08:48;98738.06;;;18.57;100.00
36600;BME280;35385;55.668;37.508;2023-08-01T00:09:48;98731.81;;;18.57;100.00
36600;BME280;35385;55.668;37.508;2023-08-01T00:10:48;98738.44;;;18.54;100.00
36600;BME280;35385;55.668;37.508;2023-08-01T00:11:49;98737.63;;;18.54;100.00
36600;BME280;35385;55.668;37.508;2023-08-01T00:12:49;98735.09;;;18.52;100.00
36600;BME280;35385;55.668;37.508;2023-08-01T00:13:49;98736.34;;;18.50;100.00
36600;BME280;35385;55.668;37.508;2023-08-01T00:14:50;98745.09;;;18.52;100.00
36600;BME280;35385;55.668;37.508;2023-08-01T00:15:50;98745.09;;;18.52;100.00
36600;BME280;35385;55.668;37.508;2023-08-01T00:16:51;98746.31;;;18.49;100.00
36600;BME280;35385;55.668;37.508;2023-08-01T00:17:51;98745.69;;;18.47;100.00
36600;BME280;35385;55.668;37.508;2023-08-01T00:18:52;98752.16;;;18.46;100.00
36600;BME280;35385;55.668;37.508;2023-08-01T00:19:52;98746.94;;;18.45;100.00
36600;BME280;35385;55.668;37.508;2023-08-01T00:20:53;98753.38;;;18.44;100.00
36600;BME280;35385;55.668;37.508;2023-08-01T00:21:53;98750.03;;;18.42;100.00
36600;BME280;35385;55.668;37.508;2023-08-01T00:22:54;98741.09;;;18.41;100.00
36600;BME280;35385;55.668;37.508;2023-08-01T00:23:54;98744.63;;;18.42;100.00
36600;BME280;35385;55.668;37.508;2023-08-01T00:24:55;98742.56;;;18.44;100.00
36600;BME280;35385;55.668;37.508;2023-08-01T00:25:55;98736.50;;;18.42;100.00
36600;BME280;35385;55.668;37.508;2023-08-01T00:26:55;98741.72;;;18.43;100.00
36600;BME280;35385;55.668;37.508;2023-08-01T00:27:56;98739.03;;;18.43;100.00
36600;BME280;35385;55.668;37.508;2023-08-01T00:28:56;98745.47;;;18.42;100.00
36600;BME280;35385;55.668;37.508;2023-08-01T00:29:56;98747.13;;;18.43;100.00
36600;BME280;35385;55.668;37.508;2023-08-01T00:31:06;98747.97;;;18.44;100.00
36600;BME280;35385;55.668;37.508;2023-08-01T00:32:08;98738.38;;;18.41;100.00
36600;BME280;35385;55.668;37.508;2023-08-01T00:33:09;98745.47;;;18.42;100.00
36600;BME280;35385;55.668;37.508;2023-08-01T00:34:09;98741.72;;;18.43;100.00
36600;BME280;35385;55.668;37.508;2023-08-01T00:35:10;98745.25;;;18.44;100.00
36600;BME280;35385;55.668;37.508;2023-08-01T00:36:10;98745.47;;;18.42;100.00
36600;BME280;35385;55.668;37.508;2023-08-01T00:37:12;98748.16;;;18.42;100.00
36600;BME280;35385;55.668;37.508;2023-08-01T00:38:12;98749.00;;;18.43;100.00
36600;BME280;35385;55.668;37.508;2023-08-01T00:39:12;98753.38;;;18.44;100.00
36600;BME280;35385;55.668;37.508;2023-08-01T00:40:13;98741.91;;;18.42;100.00
36600;BME280;35385;55.668;37.508;2023-08-01T00:41:13;98749.59;;;18.38;100.00
36600;BME280;35385;55.668;37.508;2023-08-01T00:42:13;98748.75;;;18.37;100.00
36600;BME280;35385;55.668;37.508;2023-08-01T00:43:14;98747.91;;;18.37;100.00
36600;BME280;35385;55.668;37.508;2023-08-01T00:44:14;98753.50;;;18.35;100.00
36600;BME280;35385;55.668;37.508;2023-08-01T00:45:15;98750.81;;;18.35;100.00
36600;BME280;35385;55.668;37.508;2023-08-01T00:46:15;98746.25;;;18.36;100.00
36600;BME280;35385;55.668;37.508;2023-08-01T00:47:15;98747.91;;;18.37;100.00
36600;BME280;35385;55.668;37.508;2023-08-01T00:48:16;98744.56;;;18.35;100.00
36600;BME280;35385;55.668;37.508;2023-08-01T00:49:18;98740.00;;;18.35;100.00
36600;BME280;35385;55.668;37.508;2023-08-01T00:50:19;98743.72;;;18.34;100.00
36600;BME280;35385;55.668;37.508;2023-08-01T00:51:20;98746.63;;;18.33;100.00
36600;BME280;35385;55.668;37.508;2023-08-01T00:52:20;98747.47;;;18.33;100.00
36600;BME280;35385;55.668;37.508;2023-08-01T00:53:21;98752.88;;;18.33;100.00
36600;BME280;35385;55.668;37.508;2023-08-01T00:54:22;98752.69;;;18.35;100.00
36600;BME280;35385;55.668;37.508;2023-08-01T00:55:22;98754.53;;;18.34;100.00
36600;BME280;35385;55.668;37.508;2023-08-01T00:56:24;98753.72;;;18.34;100.00
36600;BME280;35385;55.668;37.508;2023-08-01T00:57:24;98753.72;;;18.34;100.00
36600;BME280;35385;55.668;37.508;2023-08-01T00:58:25;98753.47;;;18.29;100.00
36600;BME280;35385;55.668;37.508;2023-08-01T00:59:25;98754.53;;;18.28;100.00
36600;BME280;35385;55.668;37.508;2023-08-01T01:00:25;98751.81;;;18.28;100.00
36600;BME280;35385;55.668;37.508;2023-08-01T01:01:26;98751.16;;;18.26;100.00
36600;BME280;35385;55.668;37.508;2023-08-01T01:02:26;98752.00;;;18.26;100.00
36600;BME280;35385;55.668;37.508;2023-08-01T01:03:27;98750.53;;;18.24;100.00
36600;BME280;35385;55.668;37.508;2023-08-01T01:04:27;98752.59;;;18.22;100.00
36600;BME280;35385;55.668;37.508;2023-08-01T01:05:31;98759.88;;;18.21;100.00
36600;BME280;35385;55.668;37.508;2023-08-01T01:06:34;98758.19;;;18.20;100.00
36600;BME280;35385;55.668;37.508;2023-08-01T01:07:37;98756.31;;;18.21;100.00
36600;BME280;35385;55.668;37.508;2023-08-01T01:08:39;98754.47;;;18.21;100.00
36600;BME280;35385;55.668;37.508;2023-08-01T01:09:39;98764.25;;;18.22;100.00
36600;BME280;35385;55.668;37.508;2023-08-01T01:10:39;98761.53;;;18.22;100.00
36600;BME280;35385;55.668;37.508;2023-08-01T01:11:40;98761.72;;;18.21;100.00
36600;BME280;35385;55.668;37.508;2023-08-01T01:12:40;98757.78;;;18.17;100.00
36600;BME280;35385;55.668;37.508;2023-08-01T01:13:40;98752.38;;;18.17;100.00
36600;BME280;35385;55.668;37.508;2023-08-01T01:14:41;98755.91;;;18.17;100.00
36600;BME280;35385;55.668;37.508;2023-08-01T01:15:41;98762.16;;;18.18;100.00
36600;BME280;35385;55.668;37.508;2023-08-01T01:16:42;98763.19;;;18.17;100.00
36600;BME280;35385;55.668;37.508;2023-08-01T01:17:42;98762.16;;;18.18;100.00
36600;BME280;35385;55.668;37.508;2023-08-01T01:18:42;98756.50;;;18.19;100.00
36600;BME280;35385;55.668;37.508;2023-08-01T01:19:43;98753.81;;;18.19;100.00
36600;BME280;35385;55.668;37.508;2023-08-01T01:20:43;98756.50;;;18.19;100.00
36600;BME280;35385;55.668;37.508;2023-08-01T01:23:05;98755.69;;;18.19;100.00
36600;BME280;35385;55.668;37.508;2023-08-01T01:24:07;98754.84;;;18.18;100.00
36600;BME280;35385;55.668;37.508;2023-08-01T01:25:08;98752.38;;;18.17;100.00
36600;BME280;35385;55.668;37.508;2023-08-01T01:26:10;98749.84;;;18.15;100.00
36600;BME280;35385;55.668;37.508;2023-08-01T01:27:10;98759.84;;;18.15;100.00
36600;BME280;35385;55.668;37.508;2023-08-01T01:28:12;98758.16;;;18.14;100.00
36600;BME280;35385;55.668;37.508;2023-08-01T01:29:13;98770.19;;;18.11;100.00
36600;BME280;35385;55.668;37.508;2023-08-01T01:30:14;98760.22;;;18.12;100.00
36600;BME280;35385;55.668;37.508;2023-08-01T01:31:14;98757.50;;;18.12;100.00
36600;BME280;35385;55.668;37.508;2023-08-01T01:32:15;98762.28;;;18.10;100.00
36600;BME280;35385;55.668;37.508;2023-08-01T01:33:16;98763.31;;;18.09;100.00
36600;BME280;35385;55.668;37.508;2023-08-01T01:34:17;98766.19;;;18.07;100.00
36600;BME280;35385;55.668;37.508;2023-08-01T01:35:17;98764.34;;;18.08;100.00
36600;BME280;35385;55.668;37.508;2023-08-01T01:36:18;98764.53;;;18.06;100.00
36600;BME280;35385;55.668;37.508;2023-08-01T01:37:18;98759.53;;;18.03;100.00
36600;BME280;35385;55.668;37.508;2023-08-01T01:38:18;98762.44;;;18.01;100.00
36600;BME280;35385;55.668;37.508;2023-08-01T01:39:19;98758.06;;;18.00;100.00
36600;BME280;35385;55.668;37.508;2023-08-01T01:40:19;98763.47;;;18.00;100.00
36600;BME280;35385;55.668;37.508;2023-08-01T01:41:20;98763.47;;;18.00;100.00
36600;BME280;35385;55.668;37.508;2023-08-01T01:42:20;98757.88;;;18.02;100.00
36600;BME280;35385;55.668;37.508;2023-08-01T01:43:20;98764.09;;;18.02;100.00
36600;BME280;35385;55.668;37.508;2023-08-01T01:44:21;98758.69;;;18.02;100.00
36600;BME280;35385;55.668;37.508;2023-08-01T01:45:21;98761.41;;;18.02;100.00
36600;BME280;35385;55.668;37.508;2023-08-01T01:46:21;98765.75;;;18.03;100.00
36600;BME280;35385;55.668;37.508;2023-08-01T01:47:22;98761.19;;;18.04;100.00
36600;BME280;35385;55.668;37.508;2023-08-01T01:48:22;98763.50;;;18.07;100.00
36600;BME280;35385;55.668;37.508;2023-08-01T01:49:23;98755.38;;;18.07;100.00
36600;BME280;35385;55.668;37.508;2023-08-01T01:50:25;98770.13;;;18.05;100.00
36600;BME280;35385;55.668;37.508;2023-08-01T01:51:26;98758.69;;;18.02;100.00
36600;BME280;35385;55.668;37.508;2023-08-01T01:52:26;98768.69;;;18.02;100.00
36600;BME280;35385;55.668;37.508;2023-08-01T01:53:27;98765.53;;;17.98;100.00
36600;BME280;35385;55.668;37.508;2023-08-01T01:54:27;98768.41;;;17.97;100.00
36600;BME280;35385;55.668;37.508;2023-08-01T01:55:27;98765.91;;;17.95;100.00
36600;BME280;35385;55.668;37.508;2023-08-01T01:56:28;98765.25;;;17.93;100.00
36600;BME280;35385;55.668;37.508;2023-08-01T01:57:29;98770.03;;;17.91;100.00
36600;BME280;35385;55.668;37.508;2023-08-01T01:58:30;98772.53;;;17.93;100.00
36600;BME280;35385;55.668;37.508;2023-08-01T01:59:30;98763.97;;;17.89;100.00
36600;BME280;35385;55.668;37.508;2023-08-01T02:00:30;98768.75;;;17.87;100.00
36600;BME280;35385;55.668;37.508;2023-08-01T02:01:31;98768.75;;;17.87;100.00
36600;BME280;35385;55.668;37.508;2023-08-01T02:02:31;98768.34;;;17.90;100.00
36600;BME280;35385;55.668;37.508;2023-08-01T02:03:32;98767.97;;;17.93;100.00
36600;BME280;35385;55.668;37.508;2023-08-01T02:04:32;98767.97;;;17.93;100.00
36600;BME280;35385;55.668;37.508;2023-08-01T02:05:32;98767.56;;;17.96;100.00
36600;BME280;35385;55.668;37.508;2023-08-01T02:06:33;98769.25;;;17.97;100.00
36600;BME280;35385;55.668;37.508;2023-08-01T02:07:33;98775.50;;;17.98;100.00
36600;BME280;35385;55.668;37.508;2023-08-01T02:08:33;98765.72;;;17.97;100.00
36600;BME280;35385;55.668;37.508;2023-08-01T02:09:34;98761.97;;;17.98;100.00
36600;BME280;35385;55.668;37.508;2023-08-01T02:10:34;98770.72;;;18.00;100.00
36600;BME280;35385;55.668;37.508;2023-08-01T02:11:34;98764.09;;;18.02;100.00
36600;BME280;35385;55.668;37.508;2023-08-01T02:12:35;98766.81;;;18.02;100.00
36600;BME280;35385;55.668;37.508;2023-08-01T02:13:36;98763.28;;;18.02;100.00
36600;BME280;35385;55.668;37.508;2023-08-01T02:14:36;98766.81;;;18.02;100.00
36600;BME280;35385;55.668;37.508;2023-08-01T02:15:36;98771.16;;;18.03;100.00
36600;BME280;35385;55.668;37.508;2023-08-01T02:16:37;98766.81;;;18.02;100.00
36600;BME280;35385;55.668;37.508;2023-08-01T02:17:37;98765.31;;;18.00;100.00
36600;BME280;35385;55.668;37.508;2023-08-01T02:18:57;98766.34;;;17.99;100.00
36600;BME280;35385;55.668;37.508;2023-08-01T02:19:58;98766.34;;;17.99;100.00
36600;BME280;35385;55.668;37.508;2023-08-01T02:20:58;98765.72;;;17.97;100.00
36600;BME280;35385;55.668;37.508;2023-08-01T02:21:59;98770.91;;;17.98;100.00
36600;BME280;35385;55.668;37.508;2023-08-01T02:22:59;98767.38;;;17.98;100.00
36600;BME280;35385;55.668;37.508;2023-08-01T02:23:59;98768.88;;;18.00;100.00
36600;BME280;35385;55.668;37.508;2023-08-01T02:25:00;98765.13;;;18.01;100.00
36600;BME280;35385;55.668;37.508;2023-08-01T02:26:00;98768.69;;;18.02;100.00
36600;BME280;35385;55.668;37.508;2023-08-01T02:27:00;98766.81;;;18.02;100.00
36600;BME280;35385;55.668;37.508;2023-08-01T02:28:01;98768.69;;;18.02;100.00
36600;BME280;35385;55.668;37.508;2023-08-01T02:29:01;98766.41;;;18.06;100.00
36600;BME280;35385;55.668;37.508;2023-08-01T02:30:01;98769.09;;;18.06;100.00
36600;BME280;35385;55.668;37.508;2023-08-01T02:31:02;98773.47;;;18.07;100.00
36600;BME280;35385;55.668;37.508;2023-08-01T02:32:03;98770.56;;;18.08;100.00
36600;BME280;35385;55.668;37.508;2023-08-01T02:33:03;98764.34;;;18.08;100.00
36600;BME280;35385;55.668;37.508;2023-08-01T02:34:03;98768.06;;;18.07;100.00
36600;BME280;35385;55.668;37.508;2023-08-01T02:35:04;98767.22;;;18.06;100.00
36600;BME280;35385;55.668;37.508;2023-08-01T02:36:06;98763.50;;;18.07;100.00
36600;BME280;35385;55.668;37.508;2023-08-01T02:37:06;98766.00;;;18.09;100.00
36600;BME280;35385;55.668;37.508;2023-08-01T02:38:06;98760.22;;;18.12;100.00
36600;BME280;35385;55.668;37.508;2023-08-01T02:39:07;98768.97;;;18.14;100.00
36600;BME280;35385;55.668;37.508;2023-08-01T02:40:08;98768.78;;;18.15;100.00
36600;BME280;35385;55.668;37.508;2023-08-01T02:41:08;98769.81;;;18.14;100.00
36600;BME280;35385;55.668;37.508;2023-08-01T02:42:09;98778.75;;;18.15;100.00
36600;BME280;35385;55.668;37.508;2023-08-01T02:43:09;98767.09;;;18.14;100.00
36600;BME280;35385;55.668;37.508;2023-08-01T02:44:09;98766.25;;;18.14;100.00
36600;BME280;35385;55.668;37.508;2023-08-01T02:45:10;98763.38;;;18.15;100.00
36600;BME280;35385;55.668;37.508;2023-08-01T02:46:10;98770.44;;;18.16;100.00
36600;BME280;35385;55.668;37.508;2023-08-01T02:47:10;98781.25;;;18.16;100.00
36600;BME280;35385;55.668;37.508;2023-08-01T02:48:11;98766.91;;;18.16;100.00
36600;BME280;35385;55.668;37.508;2023-08-01T02:49:11;98766.06;;;18.15;100.00
36600;BME280;35385;55.668;37.508;2023-08-01T02:50:11;98768.59;;;18.17;100.00
36600;BME280;35385;55.668;37.508;2023-08-01T02:51:12;98773.75;;;18.18;100.00
36600;BME280;35385;55.668;37.508;2023-08-01T02:52:12;98767.13;;;18.21;100.00
36600;BME280;35385;55.668;37.508;2023-08-01T02:53:13;98774.66;;;18.25;100.00
36600;BME280;35385;55.668;37.508;2023-08-01T02:54:13;98772.78;;;18.26;100.00
36600;BME280;35385;55.668;37.508;2023-08-01T02:55:14;98770.09;;;18.26;100.00
36600;BME280;35385;55.668;37.508;2023-08-01T02:56:14;98767.38;;;18.26;100.00
36600;BME280;35385;55.668;37.508;2023-08-01T02:57:14;98776.16;;;18.28;100.00
36600;BME280;35385;55.668;37.508;2023-08-01T02:58:15;98775.69;;;18.24;100.00
36600;BME280;35385;55.668;37.508;2023-08-01T02:59:15;98772.16;;;18.24;100.00
36600;BME280;35385;55.668;37.508;2023-08-01T03:00:18;98777.38;;;18.25;100.00
36600;BME280;35385;55.668;37.508;2023-08-01T03:01:18;98779.03;;;18.26;100.00
36600;BME280;35385;55.668;37.508;2023-08-01T03:02:18;98776.97;;;18.28;100.00
36600;BME280;35385;55.668;37.508;2023-08-01T03:03:19;98770.75;;;18.28;100.00
36600;BME280;35385;55.668;37.508;2023-08-01T03:04:19;98773.44;;;18.28;100.00
36600;BME280;35385;55.668;37.508;2023-08-01T03:05:20;98783.22;;;18.29;100.00
36600;BME280;35385;55.668;37.508;2023-08-01T03:06:20;98783.03;;;18.30;100.00
36600;BME280;35385;55.668;37.508;2023-08-01T03:07:20;98776.38;;;18.33;100.00
36600;BME280;35385;55.668;37.508;2023-08-01T03:08:21;98777.00;;;18.35;100.00
36600;BME280;35385;55.668;37.508;2023-08-01T03:09:21;98775.78;;;18.37;100.00
36600;BME280;35385;55.668;37.508;2023-08-01T03:10:21;98778.28;;;18.39;100.00
36600;BME280;35385;55.668;37.508;2023-08-01T03:11:22;98779.31;;;18.38;100.00
36600;BME280;35385;55.668;37.508;2023-08-01T03:12:22;98782.03;;;18.38;100.00
36600;BME280;35385;55.668;37.508;2023-08-01T03:13:22;98774.56;;;18.40;100.00
36600;BME280;35385;55.668;37.508;2023-08-01T03:14:23;98789.56;;;18.43;100.00
36600;BME280;35385;55.668;37.508;2023-08-01T03:15:23;98784.59;;;18.46;100.00
36600;BME280;35385;55.668;37.508;2023-08-01T03:16:23;98781.47;;;18.49;100.00
36600;BME280;35385;55.668;37.508;2023-08-01T03:17:24;98783.78;;;18.52;100.00
36600;BME280;35385;55.668;37.508;2023-08-01T03:18:24;98780.88;;;18.54;100.00
36600;BME280;35385;55.668;37.508;2023-08-01T03:19:25;98777.97;;;18.55;100.00
36600;BME280;35385;55.668;37.508;2023-08-01T03:20:25;98781.31;;;18.57;100.00
36600;BME280;35385;55.668;37.508;2023-08-01T03:21:25;98786.75;;;18.57;100.00
36600;BME280;35385;55.668;37.508;2023-08-01T03:22:26;98777.63;;;18.58;100.00
36600;BME280;35385;55.668;37.508;2023-08-01T03:23:27;98781.31;;;18.57;100.00
36600;BME280;35385;55.668;37.508;2023-08-01T03:24:27;98782.16;;;18.58;100.00
36600;BME280;35385;55.668;37.508;2023-08-01T03:25:27;98786.75;;;18.57;100.00
36600;BME280;35385;55.668;37.508;2023-08-01T03:26:28;98789.63;;;18.56;100.00
36600;BME280;35385;55.668;37.508;2023-08-01T03:27:29;98784.41;;;18.54;100.00
36600;BME280;35385;55.668;37.508;2023-08-01T03:28:30;98794.59;;;18.52;100.00
36600;BME280;35385;55.668;37.508;2023-08-01T03:29:30;98790.41;;;18.50;100.00
36600;BME280;35385;55.668;37.508;2023-08-01T03:30:31;98792.28;;;18.49;100.00
36600;BME280;35385;55.668;37.508;2023-08-01T03:31:32;98792.28;;;18.49;100.00
36600;BME280;35385;55.668;37.508;2023-08-01T03:32:32;98782.09;;;18.51;100.00
36600;BME280;35385;55.668;37.508;2023-08-01T03:33:33;98790.88;;;18.53;100.00
36600;BME280;35385;55.668;37.508;2023-08-01T03:34:33;98796.28;;;18.53;100.00
36600;BME280;35385;55.668;37.508;2023-08-01T03:35:34;98787.13;;;18.54;100.00
36600;BME280;35385;55.668;37.508;2023-08-01T03:36:34;98795.69;;;18.58;100.00
36600;BME280;35385;55.668;37.508;2023-08-01T03:37:35;98790.13;;;18.59;100.00
36600;BME280;35385;55.668;37.508;2023-08-01T03:38:35;98794.25;;;18.62;100.00
36600;BME280;35385;55.668;37.508;2023-08-01T03:39:36;98795.75;;;18.64;100.00
36600;BME280;35385;55.668;37.508;2023-08-01T03:40:36;98792.00;;;18.65;100.00
36600;BME280;35385;55.668;37.508;2023-08-01T03:41:36;98796.38;;;18.66;100.00
36600;BME280;35385;55.668;37.508;2023-08-01T03:42:37;98788.91;;;18.68;100.00
36600;BME280;35385;55.668;37.508;2023-08-01T03:43:38;98796.44;;;18.73;100.00
36600;BME280;35385;55.668;37.508;2023-08-01T03:44:38;98794.97;;;18.77;100.00
36600;BME280;35385;55.668;37.508;2023-08-01T03:45:39;98798.13;;;18.81;100.00
36600;BME280;35385;55.668;37.508;2023-08-01T03:46:39;98795.66;;;18.86;100.00
36600;BME280;35385;55.668;37.508;2023-08-01T03:47:40;98789.44;;;18.92;100.00
36600;BME280;35385;55.668;37.508;2023-08-01T03:48:40;98792.00;;;19.00;100.00
36600;BME280;35385;55.668;37.508;2023-08-01T03:49:41;98796.19;;;19.09;100.00
36600;BME280;35385;55.668;37.508;2023-08-01T03:50:41;98797.47;;;19.20;100.00
36600;BME280;35385;55.668;37.508;2023-08-01T03:51:41;98795.44;;;19.28;100.00
36600;BME280;35385;55.668;37.508;2023-08-01T03:52:42;98796.91;;;19.37;100.00
36600;BME280;35385;55.668;37.508;2023-08-01T03:53:42;98799.44;;;19.46;100.00
36600;BME280;35385;55.668;37.508;2023-08-01T03:54:42;98795.53;;;19.55;100.00
36600;BME280;35385;55.668;37.508;2023-08-01T03:55:46;98792.63;;;19.63;100.00
36600;BME280;35385;55.668;37.508;2023-08-01T03:56:47;98795.56;;;19.68;100.00
36600;BME280;35385;55.668;37.508;2023-08-01T03:57:47;98797.47;;;19.74;100.00
36600;BME280;35385;55.668;37.508;2023-08-01T03:58:47;98797.66;;;19.79;100.00
36600;BME280;35385;55.668;37.508;2023-08-01T03:59:48;98797.88;;;19.84;100.00
36600;BME280;35385;55.668;37.508;2023-08-01T04:00:48;98798.09;;;19.89;100.00
36600;BME280;35385;55.668;37.508;2023-08-01T04:01:49;98802.03;;;19.93;100.00
36600;BME280;35385;55.668;37.508;2023-08-01T04:02:50;98806.66;;;19.99;100.00
36600;BME280;35385;55.668;37.508;2023-08-01T04:03:51;98807.72;;;20.05;100.00
36600;BME280;35385;55.668;37.508;2023-08-01T04:04:51;98807.91;;;20.10;100.00
36600;BME280;35385;55.668;37.508;2023-08-01T04:05:51;98807.28;;;20.15;100.00
36600;BME280;35385;55.668;37.508;2023-08-01T04:06:52;98813.97;;;20.19;100.00
36600;BME280;35385;55.668;37.508;2023-08-01T04:07:52;98812.28;;;20.24;100.00
36600;BME280;35385;55.668;37.508;2023-08-01T04:08:54;98811.03;;;20.27;100.00
36600;BME280;35385;55.668;37.508;2023-08-01T04:09:56;98814.16;;;20.30;100.00
36600;BME280;35385;55.668;37.508;2023-08-01T04:10:57;98808.09;;;20.35;100.00
36600;BME280;35385;55.668;37.508;2023-08-01T04:11:57;98810.00;;;20.41;100.00
36600;BME280;35385;55.668;37.508;2023-08-01T04:12:57;98816.69;;;20.45;100.00
36600;BME280;35385;55.668;37.508;2023-08-01T04:13:58;98806.88;;;20.51;100.00
36600;BME280;35385;55.668;37.508;2023-08-01T04:14:58;98810.63;;;20.56;100.00
36600;BME280;35385;55.668;37.508;2023-08-01T04:15:59;98815.59;;;20.66;100.00
36600;BME280;35385;55.668;37.508;2023-08-01T04:17:01;98810.19;;;20.72;100.00
36600;BME280;35385;55.668;37.508;2023-08-01T04:18:01;98813.69;;;20.79;100.00
36600;BME280;35385;55.668;37.508;2023-08-01T04:19:01;98811.81;;;20.87;100.00
36600;BME280;35385;55.668;37.508;2023-08-01T04:20:02;98816.78;;;20.96;100.00
36600;BME280;35385;55.668;37.508;2023-08-01T04:21:02;98814.69;;;21.05;100.00
36600;BME280;35385;55.668;37.508;2023-08-01T04:22:03;98812.75;;;21.12;100.00
36600;BME280;35385;55.668;37.508;2023-08-01T04:23:03;98808.78;;;21.21;100.00
36600;BME280;35385;55.668;37.508;2023-08-01T04:24:03;98809.19;;;21.31;100.00
36600;BME280;35385;55.668;37.508;2023-08-01T04:25:04;98806.19;;;21.39;100.00
36600;BME280;35385;55.668;37.508;2023-08-01T04:26:06;98807.84;;;21.47;100.00
36600;BME280;35385;55.668;37.508;2023-08-01T04:27:07;98805.69;;;21.56;100.00
36600;BME280;35385;55.668;37.508;2023-08-01T04:28:07;98810.66;;;21.65;100.00
36600;BME280;35385;55.668;37.508;2023-08-01T04:29:07;98813.13;;;21.73;100.00
36600;BME280;35385;55.668;37.508;2023-08-01T04:30:08;98804.69;;;21.81;100.00
36600;BME280;35385;55.668;37.508;2023-08-01T04:31:08;98808.84;;;21.91;100.00
36600;BME280;35385;55.668;37.508;2023-08-01T04:32:09;98807.72;;;21.98;100.00
36600;BME280;35385;55.668;37.508;2023-08-01T04:33:12;98807.50;;;22.06;100.00
36600;BME280;35385;55.668;37.508;2023-08-01T04:34:13;98800.09;;;22.13;100.00
36600;BME280;35385;55.668;37.508;2023-08-01T04:35:13;98810.72;;;22.21;100.00
36600;BME280;35385;55.668;37.508;2023-08-01T04:36:14;98811.28;;;22.30;100.00
36600;BME280;35385;55.668;37.508;2023-08-01T04:37:14;98806.38;;;22.39;100.00
36600;BME280;35385;55.668;37.508;2023-08-01T04:38:15;98793.56;;;22.46;100.00
36600;BME280;35385;55.668;37.508;2023-08-01T04:39:16;98794.91;;;22.55;100.00
36600;BME280;35385;55.668;37.508;2023-08-01T04:40:16;98797.94;;;22.65;100.00
36600;BME280;35385;55.668;37.508;2023-08-01T04:41:17;98798.50;;;22.74;100.00
36600;BME280;35385;55.668;37.508;2023-08-01T04:42:17;98799.66;;;22.84;100.00
36600;BME280;35385;55.668;37.508;2023-08-01T04:43:17;98802.25;;;22.98;100.00
36600;BME280;35385;55.668;37.508;2023-08-01T04:44:18;98799.84;;;23.08;100.00
36600;BME280;35385;55.668;37.508;2023-08-01T04:45:18;98802.84;;;23.18;100.00
36600;BME280;35385;55.668;37.508;2023-08-01T04:46:18;98803.75;;;23.30;100.00
36600;BME280;35385;55.668;37.508;2023-08-01T04:47:19;98799.84;;;23.38;100.00
36600;BME280;35385;55.668;37.508;2023-08-01T04:48:20;98803.94;;;23.47;100.00
36600;BME280;35385;55.668;37.508;2023-08-01T04:49:20;98794.19;;;23.57;100.00
36600;BME280;35385;55.668;37.508;2023-08-01T04:50:20;98799.91;;;23.68;100.00
36600;BME280;35385;55.668;37.508;2023-08-01T04:51:21;98796.41;;;23.79;100.00
36600;BME280;35385;55.668;37.508;2023-08-01T04:52:21;98794.16;;;23.87;100.00
36600;BME280;35385;55.668;37.508;2023-08-01T04:53:21;98793.59;;;23.97;100.00
36600;BME280;35385;55.668;37.508;2023-08-01T04:54:22;98800.59;;;23.93;100.00
36600;BME280;35385;55.668;37.508;2023-08-01T04:55:22;98794.84;;;23.83;100.00
36600;BME280;35385;55.668;37.508;2023-08-01T04:56:22;98797.69;;;23.76;100.00
36600;BME280;35385;55.668;37.508;2023-08-01T04:57:23;98795.19;;;23.75;100.00
36600;BME280;35385;55.668;37.508;2023-08-01T04:58:23;98792.63;;;23.80;100.00
36600;BME280;35385;55.668;37.508;2023-08-01T04:59:24;98795.25;;;23.98;100.00
36600;BME280;35385;55.668;37.508;2023-08-01T05:00:24;98790.19;;;24.13;100.00
36600;BME280;35385;55.668;37.508;2023-08-01T05:01:24;98791.16;;;24.19;100.00
36600;BME280;35385;55.668;37.508;2023-08-01T05:02:25;98783.34;;;24.22;100.00
36600;BME280;35385;55.668;37.508;2023-08-01T05:03:25;98789.38;;;24.24;100.00
36600;BME280;35385;55.668;37.508;2023-08-01T05:04:25;98783.47;;;24.27;100.00
36600;BME280;35385;55.668;37.508;2023-08-01T05:05:26;98791.78;;;24.44;100.00
36600;BME280;35385;55.668;37.508;2023-08-01T05:06:26;98786.44;;;24.61;100.00
36600;BME280;35385;55.668;37.508;2023-08-01T05:07:28;98787.41;;;24.43;100.00
36600;BME280;35385;55.668;37.508;2023-08-01T05:08:28;98783.97;;;24.36;100.00
36600;BME280;35385;55.668;37.508;2023-08-01T05:09:28;98793.22;;;24.47;100.00
36600;BME280;35385;55.668;37.508;2023-08-01T05:10:29;98792.16;;;24.36;100.00
36600;BME280;35385;55.668;37.508;2023-08-01T05:11:29;98790.94;;;24.32;100.00
36600;BME280;35385;55.668;37.508;2023-08-01T05:12:29;98795.03;;;24.11;100.00
36600;BME280;35385;55.668;37.508;2023-08-01T05:13:30;98795.53;;;24.08;100.00
36600;BME280;35385;55.668;37.508;2023-08-01T05:14:30;98789.81;;;24.10;100.00